Aviation Digital Data Service (ADDS)

Output produced by METARs form (0558 UTC 23 July 2014)
found at http://aviationweather.gov/adds/metars/
 
KACK 230550Z 2306/2406 23010KT P6SM FEW250 
     FM231200 22013KT P6SM BKN040 
     FM231500 22014KT P6SM SCT250 
     FM240200 21012KT 2SM -SHRA BR BKN020 OVC050